CheckWX is a tool to help pilots better visualize weather data.  It is not intended as a substitute for an official pre-flight weather briefing.

05:20:28 UTC

KAVK METAR
Alva Regional Airport
Alva, Oklahoma, USA
Current

45 mins ago

KAVK 200435Z AUTO 00000KT 2 1/2SM BR BKN006 OVC011 M03/M03 A2993 RMK AO2
Observed
Feb-20 @ 04:35 UTC
Visibility
4,023 meters
Flight Rules
IFR
Conditions
Mist
Cloud Levels
  • Broken at 600' AGL
  • Overcast at 1,100' AGL
Temperature
-3°C / 27°F
Dewpoint
-3°C / 27°F
Humidity
100%
Altimeter
29.93" Hg
Pressure
1013.52 hPa
Previous

1 hour ago

KAVK 200415Z AUTO 00000KT 2 1/2SM BR OVC012 M03/M03 A2992 RMK AO2
Observed
Feb-20 @ 04:15 UTC
Visibility
4,023 meters
Flight Rules
IFR
Conditions
Mist
Cloud Levels
  • Overcast at 1,200' AGL
Temperature
-3°C / 27°F
Dewpoint
-3°C / 27°F
Humidity
100%
Altimeter
29.92" Hg
Pressure
1013.22 hPa
Previous

1 hour ago

KAVK 200355Z AUTO 00000KT 2 1/2SM BR OVC012 M03/M03 A2992 RMK AO2
Observed
Feb-20 @ 03:55 UTC
Visibility
4,023 meters
Flight Rules
IFR
Conditions
Mist
Cloud Levels
  • Overcast at 1,200' AGL
Temperature
-3°C / 27°F
Dewpoint
-3°C / 27°F
Humidity
100%
Altimeter
29.92" Hg
Pressure
1013.22 hPa